Time;durP1;ratioP1;P1;durP2;ratioP2;P2;SDS_P1;SDS_P2;PMS_P1;PMS_P2;Temp;Humidity;BMP_temperature;BMP_pressure;BME280_temperature;BME280_humidity;BME280_pressure;Samples;Min_cycle;Max_cycle;Signal;HPM_P1;HPM_P2
2021/06/24 00:01:49;;;;;;;8.75;7.22;;;;;;;15.40;66.37;100930.00;10306230;28;20215;-73
2021/06/24 00:06:52;;;;;;;11.18;7.85;;;;;;;15.28;66.48;100926.56;10305735;28;20283;-74
2021/06/24 00:11:57;;;;;;;15.05;6.90;;;;;;;15.27;66.99;100936.50;10305330;28;20223;-74
2021/06/24 00:17:00;;;;;;;11.40;7.20;;;;;;;15.30;66.58;100935.38;10305605;28;20567;-74
2021/06/24 00:22:03;;;;;;;10.93;7.05;;;;;;;15.25;66.93;100941.22;10289201;28;20243;-74
2021/06/24 00:27:08;;;;;;;10.82;6.80;;;;;;;15.29;66.66;100933.69;10306029;28;20538;-74
2021/06/24 00:32:11;;;;;;;13.32;6.68;;;;;;;15.32;67.07;100927.97;10305766;28;20718;-73
2021/06/24 00:37:14;;;;;;;14.70;6.47;;;;;;;15.31;66.95;100926.28;10305203;28;20301;-74
2021/06/24 00:42:19;;;;;;;11.95;7.38;;;;;;;15.29;67.17;100925.56;10287736;28;20262;-74
2021/06/24 00:47:22;;;;;;;11.35;7.05;;;;;;;15.25;67.45;100916.88;10304803;28;20250;-73
2021/06/24 00:52:25;;;;;;;11.95;6.57;;;;;;;15.24;67.56;100920.56;10304992;28;20212;-74
2021/06/24 00:57:32;;;;;;;11.60;7.28;;;;;;;15.22;67.22;100919.88;10304581;28;20211;-74
2021/06/24 01:02:35;;;;;;;11.80;7.05;;;;;;;15.19;67.46;100924.69;10304562;28;20220;-75
2021/06/24 01:07:38;;;;;;;13.20;7.85;;;;;;;15.11;67.66;100929.94;10286846;28;20196;-75
2021/06/24 01:13:01;;;;;;;10.90;6.85;;;;;;;15.08;67.59;100914.84;10304552;28;20216;-74
2021/06/24 01:18:05;;;;;;;12.85;7.80;;;;;;;15.08;67.86;100920.25;10286547;28;20255;-74
2021/06/24 01:23:09;;;;;;;12.85;6.43;;;;;;;15.05;67.80;100920.53;10305675;28;20752;-74
2021/06/24 01:28:14;;;;;;;16.27;7.53;;;;;;;14.96;68.02;100921.41;10310760;28;20311;-74
2021/06/24 01:33:17;;;;;;;14.13;7.75;;;;;;;14.95;68.38;100925.97;10310830;28;20215;-73
2021/06/24 01:38:20;;;;;;;12.77;7.32;;;;;;;14.97;68.40;100926.66;10310154;28;20251;-74
2021/06/24 01:43:45;;;;;;;9.23;6.68;;;;;;;14.98;68.26;100924.81;10309602;28;20588;-74
2021/06/24 01:48:48;;;;;;;16.73;7.97;;;;;;;15.05;68.27;100928.66;10310097;28;20196;-74
2021/06/24 01:53:52;;;;;;;9.02;6.55;;;;;;;15.05;68.40;100923.25;10292792;28;20670;-73
2021/06/24 01:58:59;;;;;;;11.15;7.38;;;;;;;14.96;68.41;100907.88;10309813;28;20219;-73
2021/06/24 02:04:14;;;;;;;14.30;6.75;;;;;;;14.99;68.47;100902.16;10292354;28;20310;-73
2021/06/24 02:09:18;;;;;;;12.10;6.55;;;;;;;14.98;68.27;100895.06;10309824;28;20184;-74
2021/06/24 02:14:30;;;;;;;13.02;7.20;;;;;;;14.92;68.65;100892.91;10309104;28;20222;-74
2021/06/24 02:19:33;;;;;;;13.02;6.97;;;;;;;14.85;68.54;100881.78;10292216;28;20250;-74
2021/06/24 02:24:46;;;;;;;10.68;6.82;;;;;;;14.80;68.68;100879.50;10291344;28;20723;-74
2021/06/24 02:29:51;;;;;;;13.27;6.88;;;;;;;14.75;68.85;100872.81;10291532;28;20204;-73
2021/06/24 02:34:54;;;;;;;12.00;7.20;;;;;;;14.69;69.01;100865.25;10290708;28;20310;-74
2021/06/24 02:40:17;;;;;;;13.82;7.38;;;;;;;14.67;68.84;100859.97;10308387;28;20218;-73
2021/06/24 02:45:21;;;;;;;13.05;7.45;;;;;;;14.60;69.23;100850.72;10308700;28;20575;-74
2021/06/24 02:50:25;;;;;;;13.70;7.43;;;;;;;14.60;69.36;100846.19;10308165;28;20204;-73
2021/06/24 02:55:35;;;;;;;11.82;7.43;;;;;;;14.50;69.70;100856.09;10290344;28;20200;-73
2021/06/24 03:00:40;;;;;;;12.52;7.20;;;;;;;14.48;69.71;100844.59;10308016;28;20223;-73
2021/06/24 03:06:02;;;;;;;13.52;8.27;;;;;;;14.44;69.92;100862.06;10308192;28;20204;-73
2021/06/24 03:11:05;;;;;;;17.13;7.88;;;;;;;14.36;70.17;100853.75;10307552;28;20212;-74
2021/06/24 03:16:15;;;;;;;13.05;7.97;;;;;;;14.34;69.99;100859.31;10307281;28;20254;-74
2021/06/24 03:21:18;;;;;;;15.77;8.45;;;;;;;14.33;69.89;100865.69;10289818;28;20664;-73
2021/06/24 03:26:22;;;;;;;15.70;8.20;;;;;;;14.30;69.80;100865.97;10289448;28;20258;-73
2021/06/24 03:31:39;;;;;;;17.52;8.35;;;;;;;14.34;69.86;100863.84;10290223;28;20287;-73
2021/06/24 03:36:42;;;;;;;10.43;7.25;;;;;;;14.38;70.11;100863.47;10289181;28;20691;-73
2021/06/24 03:41:49;;;;;;;14.27;7.32;;;;;;;14.40;70.08;100857.94;10289109;28;20640;-73
2021/06/24 03:46:55;;;;;;;10.48;7.60;;;;;;;14.43;69.51;100859.53;10288111;28;20204;-74
2021/06/24 03:51:58;;;;;;;10.98;7.20;;;;;;;14.45;69.70;100855.66;10306271;28;20211;-73
2021/06/24 03:57:04;;;;;;;14.70;7.68;;;;;;;14.46;69.61;100859.25;10306033;28;20285;-73
2021/06/24 04:02:22;;;;;;;12.40;7.70;;;;;;;14.35;69.48;100865.56;10304765;28;20227;-73
2021/06/24 04:07:35;;;;;;;11.23;7.57;;;;;;;14.40;69.94;100874.16;10288227;28;20200;-73
2021/06/24 04:12:39;;;;;;;13.57;8.98;;;;;;;14.46;69.93;100870.91;10288497;28;20408;-74
2021/06/24 04:18:19;;;;;;;17.42;8.65;;;;;;;14.53;69.50;100873.91;10293238;28;20240;-73
2021/06/24 04:23:24;;;;;;;14.38;8.60;;;;;;;14.55;69.64;100867.34;10305467;28;20240;-73
2021/06/24 04:28:34;;;;;;;11.88;7.78;;;;;;;14.55;69.61;100859.25;10287720;28;20212;-73
2021/06/24 04:33:43;;;;;;;13.57;7.90;;;;;;;14.57;69.43;100856.44;10306069;28;20243;-73
2021/06/24 04:39:05;;;;;;;14.02;7.70;;;;;;;14.61;69.09;100857.84;10306611;28;20676;-73
2021/06/24 04:44:09;;;;;;;12.27;7.68;;;;;;;14.55;68.71;100850.28;10288080;28;20230;-72
2021/06/24 04:49:17;;;;;;;13.45;8.55;;;;;;;14.59;68.57;100851.75;10288455;28;20571;-73
2021/06/24 04:54:38;;;;;;;13.95;8.60;;;;;;;14.70;68.04;100843.50;10305953;28;20223;-72
2021/06/24 04:59:41;;;;;;;17.08;8.30;;;;;;;14.74;67.62;100852.19;10293222;28;20212;-73
2021/06/24 05:05:07;;;;;;;12.95;8.55;;;;;;;14.78;67.51;100840.94;10312397;28;20564;-73
2021/06/24 05:10:11;;;;;;;14.43;8.43;;;;;;;14.92;67.27;100852.31;10312474;28;20199;-74
2021/06/24 05:15:16;;;;;;;14.13;8.27;;;;;;;15.02;67.07;100845.94;10311810;28;20196;-72
2021/06/24 05:20:20;;;;;;;20.55;9.15;;;;;;;15.05;66.70;100847.50;10311868;28;20228;-74
2021/06/24 05:25:23;;;;;;;15.48;8.43;;;;;;;15.13;66.94;100854.91;10311395;28;20225;-74
2021/06/24 05:30:27;;;;;;;10.77;6.47;;;;;;;15.13;66.95;100850.34;10311705;28;20208;-73
2021/06/24 05:35:31;;;;;;;7.38;5.03;;;;;;;15.27;66.65;100859.88;10310559;28;20207;-74
2021/06/24 05:40:34;;;;;;;10.80;7.32;;;;;;;15.36;65.98;100858.19;10310467;28;20227;-74
2021/06/24 05:45:37;;;;;;;13.65;8.38;;;;;;;15.41;65.77;100862.19;10310870;28;20194;-74
2021/06/24 05:50:42;;;;;;;11.13;6.53;;;;;;;15.48;65.69;100857.03;10310899;28;20589;-74
2021/06/24 05:55:49;;;;;;;11.93;7.10;;;;;;;15.74;65.39;100837.47;10310426;28;20662;-74
2021/06/24 06:00:53;;;;;;;9.63;7.38;;;;;;;15.79;64.56;100849.56;10310609;28;20596;-74
2021/06/24 06:05:58;;;;;;;12.05;7.00;;;;;;;15.88;64.49;100848.69;10312271;28;20211;-75
2021/06/24 06:11:01;;;;;;;13.25;7.70;;;;;;;15.90;64.05;100843.94;10309683;28;20223;-73
2021/06/24 06:16:04;;;;;;;12.45;7.95;;;;;;;15.75;64.66;100848.16;10310031;28;20693;-72
2021/06/24 06:21:09;;;;;;;9.80;7.20;;;;;;;15.64;65.15;100856.47;10307454;28;20227;-72
2021/06/24 06:26:12;;;;;;;9.65;6.35;;;;;;;15.61;65.20;100856.75;10309262;28;20202;-73
2021/06/24 06:31:16;;;;;;;13.15;9.13;;;;;;;15.44;65.82;100855.63;10306877;28;20215;-73
2021/06/24 06:36:20;;;;;;;13.05;7.93;;;;;;;15.46;65.63;100876.13;10308847;28;20195;-73
2021/06/24 06:41:23;;;;;;;10.38;6.38;;;;;;;15.52;65.26;100877.41;10309542;28;20219;-73
2021/06/24 06:46:26;;;;;;;12.05;8.00;;;;;;;15.50;65.71;100881.28;10309206;28;20669;-72
2021/06/24 06:51:31;;;;;;;12.15;7.43;;;;;;;15.50;65.67;100876.72;10309295;28;20208;-72
2021/06/24 06:56:34;;;;;;;16.83;8.88;;;;;;;15.46;65.71;100873.44;10307065;28;20279;-73
2021/06/24 07:01:37;;;;;;;13.18;9.00;;;;;;;15.41;65.94;100872.16;10307390;28;20239;-72
2021/06/24 07:06:42;;;;;;;11.20;6.82;;;;;;;15.46;66.23;100867.16;10307835;28;20220;-72
2021/06/24 07:11:45;;;;;;;22.42;9.25;;;;;;;15.87;65.56;100855.09;10363401;28;20739;-73
2021/06/24 07:16:49;;;;;;;9.98;8.10;;;;;;;16.12;66.05;100864.41;10387257;28;20274;-74
2021/06/24 07:21:54;;;;;;;15.85;9.90;;;;;;;15.89;67.19;100869.34;10357918;28;20269;-73
2021/06/24 07:26:57;;;;;;;13.90;9.68;;;;;;;15.86;68.10;100875.06;10347927;28;20199;-73
2021/06/24 07:32:01;;;;;;;16.17;8.13;;;;;;;16.04;67.30;100868.88;10347902;28;20302;-74
2021/06/24 07:37:05;;;;;;;17.73;11.68;;;;;;;16.06;66.70;100873.13;10346528;28;20192;-73
2021/06/24 07:42:09;;;;;;;17.20;11.10;;;;;;;16.15;65.87;100868.69;10323973;28;20322;-73
2021/06/24 07:47:12;;;;;;;17.02;10.80;;;;;;;16.28;65.38;100868.38;10347397;28;20700;-73
2021/06/24 07:52:16;;;;;;;15.98;10.75;;;;;;;16.47;64.56;100870.13;10347616;28;20211;-73
2021/06/24 07:57:20;;;;;;;19.27;10.70;;;;;;;16.81;63.56;100865.78;10347077;28;20206;-73
2021/06/24 08:02:23;;;;;;;16.85;10.32;;;;;;;17.01;62.41;100877.34;10329607;28;20633;-75
2021/06/24 08:07:27;;;;;;;17.15;10.27;;;;;;;17.24;62.00;100863.34;10332019;28;20314;-74
2021/06/24 08:12:31;;;;;;;22.25;11.43;;;;;;;17.39;61.47;100869.94;10383050;28;20228;-73
2021/06/24 08:17:36;;;;;;;16.35;10.43;;;;;;;17.64;61.24;100856.53;10387688;28;20234;-73
2021/06/24 08:22:40;;;;;;;14.48;10.35;;;;;;;17.80;60.19;100862.06;10377525;28;20289;-73
2021/06/24 08:27:44;;;;;;;14.98;10.13;;;;;;;17.90;60.03;100857.34;10349208;28;20282;-72
2021/06/24 08:32:47;;;;;;;13.10;9.48;;;;;;;18.12;59.80;100846.97;10369147;28;20214;-71
2021/06/24 08:37:55;;;;;;;14.13;9.38;;;;;;;18.49;58.49;100849.34;10393418;28;20187;-71
2021/06/24 08:42:58;;;;;;;14.30;9.50;;;;;;;18.61;58.50;100847.16;10402748;23;20225;-72
2021/06/24 08:48:01;;;;;;;14.93;11.38;;;;;;;19.02;57.51;100844.56;10354009;28;20192;-74
2021/06/24 08:53:06;;;;;;;17.65;10.30;;;;;;;19.65;55.69;100841.16;10350113;28;20222;-74
2021/06/24 08:58:10;;;;;;;14.25;10.93;;;;;;;20.24;54.18;100840.84;10349817;28;20191;-74
2021/06/24 09:03:18;;;;;;;22.77;12.15;;;;;;;20.32;53.51;100846.28;10350316;28;20287;-74
2021/06/24 09:08:36;;;;;;;16.38;10.88;;;;;;;20.11;53.47;100837.81;10353367;28;20188;-74
2021/06/24 09:13:39;;;;;;;14.35;10.75;;;;;;;20.21;54.35;100843.03;10354556;28;20207;-74
2021/06/24 09:18:42;;;;;;;14.48;9.57;;;;;;;20.72;53.03;100840.78;10362399;28;20195;-74
2021/06/24 09:23:49;;;;;;;11.43;9.15;;;;;;;21.30;52.19;100842.09;10379270;28;20772;-74
2021/06/24 09:28:53;;;;;;;11.88;9.80;;;;;;;21.64;51.22;100827.09;10364643;28;20572;-74
2021/06/24 09:34:05;;;;;;;16.13;10.55;;;;;;;22.54;49.82;100826.94;10352338;28;20223;-73
2021/06/24 09:39:11;;;;;;;13.50;9.57;;;;;;;23.37;47.63;100826.53;10380605;28;20206;-74
2021/06/24 09:44:19;;;;;;;11.88;9.15;;;;;;;24.31;45.12;100818.69;10365854;28;20562;-72
2021/06/24 09:49:30;;;;;;;15.50;9.75;;;;;;;24.06;45.92;100812.03;10370018;28;20378;-74
2021/06/24 09:54:37;;;;;;;12.95;9.20;;;;;;;24.65;45.16;100825.16;10369952;28;20297;-71
2021/06/24 09:59:41;;;;;;;15.57;9.95;;;;;;;24.72;44.23;100816.97;10369592;28;20297;-74
2021/06/24 10:04:45;;;;;;;11.88;9.10;;;;;;;23.97;44.86;100819.59;10357033;28;20207;-74
2021/06/24 10:09:50;;;;;;;14.48;10.35;;;;;;;23.43;46.85;100821.09;10357910;28;20199;-74
2021/06/24 10:14:57;;;;;;;15.13;10.15;;;;;;;23.06;47.48;100824.94;10379509;28;20302;-73
2021/06/24 10:20:00;;;;;;;13.73;10.60;;;;;;;23.53;47.25;100826.22;10391738;28;20290;-72
2021/06/24 10:25:08;;;;;;;12.02;9.60;;;;;;;24.00;46.27;100818.34;10391225;28;20215;-73
2021/06/24 10:30:15;;;;;;;12.43;10.18;;;;;;;23.97;45.85;100816.84;10392732;28;20186;-74
2021/06/24 10:35:25;;;;;;;14.18;10.07;;;;;;;23.82;46.51;100816.13;10388888;28;20731;-73
2021/06/24 10:40:33;;;;;;;11.25;9.60;;;;;;;23.53;47.69;100808.91;10391622;28;20238;-73
2021/06/24 10:45:37;;;;;;;14.18;9.90;;;;;;;23.20;48.14;100809.47;10392355;28;20219;-74
2021/06/24 10:50:43;;;;;;;11.90;9.15;;;;;;;23.25;48.69;100808.91;10390970;28;20194;-74
2021/06/24 10:55:50;;;;;;;11.60;9.30;;;;;;;23.71;47.88;100803.78;10390338;28;20183;-73
2021/06/24 11:00:54;;;;;;;12.68;9.10;;;;;;;23.89;46.59;100797.81;10390307;28;20207;-75
2021/06/24 11:06:10;;;;;;;14.32;9.55;;;;;;;23.81;46.52;100793.31;10371899;28;20207;-73
2021/06/24 11:11:16;;;;;;;11.88;8.60;;;;;;;23.35;46.85;100791.06;10390057;28;20221;-73
2021/06/24 11:16:35;;;;;;;11.80;8.48;;;;;;;22.67;46.26;100784.31;10389176;28;20278;-74
2021/06/24 11:21:55;;;;;;;9.07;6.80;;;;;;;23.18;44.91;100778.72;10354557;28;20649;-73
2021/06/24 11:27:01;;;;;;;12.35;7.97;;;;;;;23.26;45.49;100785.91;10357334;28;20266;-73
2021/06/24 11:32:13;;;;;;;10.23;8.10;;;;;;;23.42;45.70;100782.88;10368692;28;20690;-74
2021/06/24 11:37:18;;;;;;;12.70;8.63;;;;;;;23.32;46.94;100788.75;10368401;28;20651;-73
2021/06/24 11:42:26;;;;;;;10.50;8.32;;;;;;;22.85;45.76;100781.97;10370471;28;20230;-74
2021/06/24 11:47:32;;;;;;;11.25;8.45;;;;;;;22.67;45.80;100771.44;10388380;28;20186;-74
2021/06/24 12:03:21;;;;;;;12.10;8.40;;;;;;;21.85;49.00;100774.44;10366659;28;20219;-73
2021/06/24 12:08:25;;;;;;;11.88;9.25;;;;;;;20.66;52.30;100778.75;10373048;28;20199;-72
2021/06/24 12:13:31;;;;;;;15.60;9.73;;;;;;;20.10;54.12;100776.97;10357046;28;20223;-73
2021/06/24 12:18:35;;;;;;;13.98;10.40;;;;;;;20.00;54.95;100775.50;10367089;28;20222;-73
2021/06/24 12:23:41;;;;;;;20.95;13.20;;;;;;;19.55;56.47;100776.94;10340464;28;20226;-72
2021/06/24 12:28:46;;;;;;;19.30;13.23;;;;;;;19.34;57.51;100775.63;10364473;28;20186;-73
2021/06/24 12:33:51;;;;;;;19.83;13.00;;;;;;;19.28;57.51;100772.72;10365208;28;20218;-74
2021/06/24 12:38:54;;;;;;;18.88;14.35;;;;;;;19.34;59.29;100777.50;10365782;28;20201;-73
2021/06/24 12:44:04;;;;;;;18.35;14.00;;;;;;;19.12;62.67;100781.78;10363198;28;20223;-74
2021/06/24 12:49:15;;;;;;;20.00;14.32;;;;;;;18.69;64.66;100778.31;10354119;28;20201;-73
2021/06/24 12:54:22;;;;;;;20.25;13.20;;;;;;;18.68;66.08;100773.91;10350777;28;20210;-73
2021/06/24 12:59:29;;;;;;;24.02;14.27;;;;;;;18.96;65.65;100766.28;10365039;28;20188;-73
2021/06/24 13:04:40;;;;;;;21.73;14.77;;;;;;;19.15;66.14;100770.56;10364618;28;20229;-73
2021/06/24 13:09:45;;;;;;;21.30;13.88;;;;;;;19.76;65.28;100765.53;10365407;28;20179;-73
2021/06/24 13:14:49;;;;;;;19.98;14.32;;;;;;;20.00;62.35;100762.69;10360105;28;20215;-74
2021/06/24 13:19:55;;;;;;;18.33;13.23;;;;;;;20.15;61.11;100764.66;10369196;28;20222;-73
2021/06/24 13:25:00;;;;;;;19.20;13.80;;;;;;;20.34;59.69;100758.81;10374945;28;20256;-74
2021/06/24 13:30:08;;;;;;;18.92;13.77;;;;;;;20.84;57.70;100748.38;10372930;28;20238;-73
2021/06/24 13:35:12;;;;;;;22.85;14.55;;;;;;;21.15;55.27;100753.81;10358633;28;20222;-74
2021/06/24 13:40:17;;;;;;;18.70;13.40;;;;;;;21.56;53.79;100743.31;10352013;28;20578;-73
2021/06/24 13:45:22;;;;;;;20.38;13.70;;;;;;;21.89;51.82;100732.84;10364039;28;20289;-73
2021/06/24 13:50:25;;;;;;;16.20;12.40;;;;;;;22.20;51.20;100739.97;10388526;28;20198;-74
2021/06/24 13:55:50;;;;;;;16.45;11.75;;;;;;;22.26;51.28;100744.66;10391549;28;20190;-74
2021/06/24 14:00:57;;;;;;;14.15;11.93;;;;;;;23.00;49.31;100736.16;10390518;28;20198;-74
2021/06/24 14:06:00;;;;;;;15.43;10.70;;;;;;;23.08;49.41;100739.81;10389121;28;20218;-72
2021/06/24 14:11:03;;;;;;;17.35;11.50;;;;;;;22.74;50.47;100735.94;10389288;28;20564;-74
2021/06/24 14:16:09;;;;;;;13.77;11.90;;;;;;;22.22;50.10;100734.31;10390280;28;20195;-73
2021/06/24 14:21:15;;;;;;;20.50;12.27;;;;;;;22.40;51.55;100728.38;10374560;28;20230;-73
2021/06/24 14:26:18;;;;;;;16.13;12.10;;;;;;;22.46;49.86;100724.91;10374862;28;20576;-73
2021/06/24 14:31:23;;;;;;;14.63;10.18;;;;;;;22.24;49.62;100734.94;10392080;28;20203;-75
2021/06/24 14:36:26;;;;;;;15.18;10.30;;;;;;;21.90;50.09;100728.22;10373536;28;20229;-75
2021/06/24 14:41:30;;;;;;;14.50;10.02;;;;;;;21.66;51.10;100729.34;10391616;28;20222;-75
2021/06/24 14:46:34;;;;;;;12.55;9.20;;;;;;;21.38;51.52;100730.00;10393708;28;20526;-74
2021/06/24 14:51:41;;;;;;;15.20;9.23;;;;;;;21.15;50.12;100721.03;10392505;28;20558;-75
2021/06/24 14:56:44;;;;;;;12.20;8.88;;;;;;;20.94;52.14;100717.06;10391493;28;20179;-75
2021/06/24 15:01:49;;;;;;;14.00;9.05;;;;;;;20.72;52.33;100716.06;10391289;28;20211;-73
2021/06/24 15:06:52;;;;;;;14.40;8.82;;;;;;;20.61;53.43;100704.75;10391589;28;20274;-74
2021/06/24 15:11:55;;;;;;;12.98;8.88;;;;;;;20.52;55.16;100713.00;10390677;28;20213;-73
2021/06/24 15:16:59;;;;;;;13.38;7.78;;;;;;;20.55;55.98;100709.91;10372194;28;20574;-73
2021/06/24 15:22:03;;;;;;;11.43;7.85;;;;;;;20.41;55.56;100712.56;10371100;28;20652;-74
2021/06/24 15:27:07;;;;;;;11.27;8.70;;;;;;;20.48;55.33;100706.19;10369410;28;20195;-74
2021/06/24 15:32:11;;;;;;;9.65;8.13;;;;;;;20.51;53.54;100694.91;10357535;28;20211;-74
2021/06/24 15:37:14;;;;;;;13.05;7.80;;;;;;;20.55;53.39;100698.13;10373394;28;20254;-73
2021/06/24 15:42:17;;;;;;;7.75;6.88;;;;;;;20.70;52.57;100699.00;10369365;28;20211;-72
2021/06/24 15:47:22;;;;;;;13.95;9.23;;;;;;;20.85;53.00;100687.31;10367378;28;20192;-72
2021/06/24 15:52:25;;;;;;;15.40;9.10;;;;;;;20.85;53.58;100679.97;10339937;28;20227;-73
2021/06/24 15:57:29;;;;;;;14.73;9.02;;;;;;;20.59;53.60;100666.69;10349162;28;20241;-73
2021/06/24 16:02:33;;;;;;;13.38;9.32;;;;;;;20.44;53.44;100672.13;10336906;28;20238;-73
2021/06/24 16:07:36;;;;;;;13.73;8.82;;;;;;;20.34;54.79;100671.50;10347622;28;20195;-73
2021/06/24 16:12:39;;;;;;;11.75;8.77;;;;;;;20.19;55.31;100657.78;10384967;28;20207;-73
2021/06/24 16:17:47;;;;;;;13.93;9.35;;;;;;;20.02;56.25;100664.34;10387800;28;20287;-73
2021/06/24 16:22:51;;;;;;;11.93;8.63;;;;;;;19.97;56.59;100655.88;10384132;28;20590;-73
2021/06/24 16:27:55;;;;;;;13.90;8.02;;;;;;;19.96;56.63;100659.63;10387062;28;20202;-73
2021/06/24 16:32:59;;;;;;;12.88;8.85;;;;;;;19.85;57.74;100667.16;10386747;28;20230;-73
2021/06/24 16:38:03;;;;;;;13.57;9.00;;;;;;;19.75;57.50;100661.09;10372184;28;20190;-73
2021/06/24 16:43:07;;;;;;;12.48;9.93;;;;;;;19.52;57.62;100665.59;10365289;28;20306;-74
2021/06/24 16:48:11;;;;;;;12.15;8.75;;;;;;;19.30;57.88;100667.19;10364030;28;20205;-74
2021/06/24 16:53:15;;;;;;;14.77;9.02;;;;;;;19.25;58.39;100662.25;10368373;28;20581;-73
2021/06/24 16:58:17;;;;;;;10.02;7.93;;;;;;;19.27;57.68;100662.09;10373803;28;20195;-73
2021/06/24 17:03:22;;;;;;;11.45;8.10;;;;;;;19.17;56.89;100659.56;10373726;28;20221;-73
2021/06/24 17:08:25;;;;;;;12.30;8.27;;;;;;;19.12;57.23;100659.25;10388629;28;20281;-73
2021/06/24 17:13:28;;;;;;;9.82;7.95;;;;;;;19.19;57.50;100660.25;10378657;28;20595;-73
2021/06/24 17:18:32;;;;;;;9.43;7.30;;;;;;;19.11;56.67;100665.72;10365736;28;20194;-73
2021/06/24 17:23:35;;;;;;;9.00;7.38;;;;;;;18.95;56.88;100663.88;10373950;28;20222;-72
2021/06/24 17:28:38;;;;;;;10.32;7.50;;;;;;;18.98;56.67;100663.53;10368684;28;20272;-74
2021/06/24 17:33:43;;;;;;;10.55;7.72;;;;;;;18.90;57.28;100650.78;10393346;28;20198;-73
2021/06/24 17:38:46;;;;;;;11.38;7.82;;;;;;;18.94;57.49;100663.03;10393175;28;20202;-74
2021/06/24 17:43:51;;;;;;;10.27;6.78;;;;;;;19.01;57.76;100663.19;10393062;28;20218;-74
2021/06/24 17:48:55;;;;;;;12.20;7.50;;;;;;;19.01;57.57;100668.63;10392796;28;20205;-75
2021/06/24 17:53:59;;;;;;;8.30;6.75;;;;;;;18.96;58.39;100665.59;10392704;28;20290;-74
2021/06/24 17:59:02;;;;;;;11.38;6.95;;;;;;;18.88;59.10;100663.72;10392647;28;20198;-74
2021/06/24 18:04:06;;;;;;;9.35;6.82;;;;;;;18.78;59.55;100663.88;10391219;28;20222;-74
2021/06/24 18:09:09;;;;;;;10.50;7.30;;;;;;;18.70;59.36;100666.56;10392678;28;20678;-74
2021/06/24 18:14:12;;;;;;;7.63;6.82;;;;;;;18.56;59.59;100664.53;10391772;28;20290;-74
2021/06/24 18:19:17;;;;;;;9.75;6.43;;;;;;;18.45;60.69;100662.16;10378100;28;20290;-74
2021/06/24 18:24:20;;;;;;;8.25;6.93;;;;;;;18.34;60.70;100666.06;10391242;28;20290;-73
2021/06/24 18:29:23;;;;;;;9.68;7.30;;;;;;;18.31;61.76;100659.09;10369707;28;20191;-73
2021/06/24 18:34:27;;;;;;;9.63;7.55;;;;;;;18.24;61.74;100663.53;10356170;28;20215;-74
2021/06/24 18:39:30;;;;;;;9.93;7.82;;;;;;;18.17;62.27;100665.19;10364345;28;20693;-74
2021/06/24 18:44:34;;;;;;;11.27;8.20;;;;;;;18.13;62.27;100664.69;10370994;28;20221;-74
2021/06/24 18:49:38;;;;;;;17.27;9.40;;;;;;;18.01;61.99;100665.16;10365836;28;20206;-74
2021/06/24 18:54:41;;;;;;;12.35;8.85;;;;;;;17.96;62.11;100651.19;10350152;28;20576;-73
2021/06/24 18:59:45;;;;;;;13.85;9.82;;;;;;;17.89;62.47;100656.44;10358057;28;20191;-75
2021/06/24 19:04:49;;;;;;;12.88;9.93;;;;;;;17.79;62.54;100658.44;10389986;28;20224;-75
2021/06/24 19:09:53;;;;;;;11.13;9.40;;;;;;;17.68;63.03;100659.59;10390065;28;20225;-73
2021/06/24 19:14:56;;;;;;;18.20;10.25;;;;;;;17.70;63.00;100654.84;10372401;28;20306;-72
2021/06/24 19:20:00;;;;;;;13.48;9.75;;;;;;;17.67;63.14;100655.19;10372252;28;20281;-74
2021/06/24 19:25:04;;;;;;;14.77;10.43;;;;;;;17.70;62.91;100663.00;10388922;28;20571;-73
2021/06/24 19:30:09;;;;;;;16.02;10.55;;;;;;;17.68;63.26;100665.03;10389494;28;20202;-74
2021/06/24 19:35:14;;;;;;;15.35;9.77;;;;;;;17.64;63.36;100666.38;10388893;28;20210;-74
2021/06/24 19:40:17;;;;;;;16.65;9.82;;;;;;;17.57;63.45;100668.03;10389424;28;20224;-74
2021/06/24 19:45:20;;;;;;;14.90;10.60;;;;;;;17.53;63.52;100672.09;10388709;28;20688;-74
2021/06/24 19:50:26;;;;;;;13.65;9.95;;;;;;;17.50;63.41;100678.72;10388651;28;20577;-75
2021/06/24 19:55:35;;;;;;;15.52;9.15;;;;;;;17.43;63.95;100678.50;10388261;28;20207;-74
2021/06/24 20:00:38;;;;;;;13.57;10.43;;;;;;;17.38;63.79;100678.13;10388390;28;20178;-74
2021/06/24 20:05:43;;;;;;;17.45;11.13;;;;;;;17.33;63.65;100676.91;10354818;28;20215;-74
2021/06/24 20:10:46;;;;;;;14.00;11.38;;;;;;;17.22;64.22;100664.47;10326816;28;20203;-76
2021/06/24 20:15:48;;;;;;;16.27;11.93;;;;;;;17.16;64.09;100670.53;10346709;28;20192;-75
2021/06/24 20:20:53;;;;;;;15.63;11.27;;;;;;;17.11;63.99;100668.25;10356144;28;20579;-73
2021/06/24 20:25:56;;;;;;;19.48;11.68;;;;;;;17.02;64.20;100680.94;10369421;28;20222;-73
2021/06/24 20:31:00;;;;;;;18.80;13.40;;;;;;;16.91;64.68;100697.47;10369819;28;20203;-73
2021/06/24 20:36:05;;;;;;;14.68;10.32;;;;;;;16.83;64.91;100681.13;10355702;28;20202;-74
2021/06/24 20:41:30;;;;;;;12.32;9.73;;;;;;;16.65;64.98;100683.03;10360544;28;20217;-75
2021/06/24 20:46:33;;;;;;;13.48;9.20;;;;;;;16.22;65.70;100680.06;10297244;28;20307;-74
2021/06/24 20:51:37;;;;;;;11.90;9.30;;;;;;;16.14;65.73;100694.38;10284391;28;20220;-73
2021/06/24 20:56:40;;;;;;;13.95;9.35;;;;;;;16.11;65.98;100683.00;10285911;28;20196;-74
2021/06/24 21:01:44;;;;;;;14.85;9.63;;;;;;;16.13;66.27;100694.56;10286680;28;20215;-72
2021/06/24 21:06:48;;;;;;;15.23;9.40;;;;;;;16.09;66.22;100696.69;10304913;28;20216;-74
2021/06/24 21:11:51;;;;;;;12.13;9.15;;;;;;;16.13;66.48;100694.56;10305554;28;20216;-74
2021/06/24 21:16:54;;;;;;;14.15;9.40;;;;;;;16.18;66.34;100703.09;10287151;28;20224;-73
2021/06/24 21:21:59;;;;;;;14.55;10.20;;;;;;;16.14;66.05;100707.09;10287504;28;20224;-73
2021/06/24 21:27:02;;;;;;;13.73;8.27;;;;;;;16.10;66.16;100713.84;10304427;28;20216;-73
2021/06/24 21:32:05;;;;;;;13.77;9.80;;;;;;;16.09;66.34;100712.09;10305231;28;20707;-73
2021/06/24 21:37:10;;;;;;;15.73;9.98;;;;;;;16.05;66.37;100719.69;10275605;28;20199;-73
2021/06/24 21:42:13;;;;;;;15.35;10.13;;;;;;;16.03;66.23;100718.13;10270225;28;20806;-74
2021/06/24 21:47:16;;;;;;;18.20;10.27;;;;;;;15.94;66.56;100719.91;10270984;28;20658;-73
2021/06/24 21:52:20;;;;;;;16.25;10.55;;;;;;;15.94;66.17;100717.19;10271263;28;20226;-74
2021/06/24 21:57:23;;;;;;;15.73;10.05;;;;;;;15.90;66.22;100707.66;10253169;28;20205;-73
2021/06/24 22:02:26;;;;;;;16.60;10.02;;;;;;;15.85;66.04;100718.97;10270191;28;20205;-73
2021/06/24 22:07:31;;;;;;;16.05;9.63;;;;;;;15.77;66.12;100716.16;10269286;28;20213;-73
2021/06/24 22:12:36;;;;;;;16.50;10.80;;;;;;;15.67;66.43;100731.59;10252064;28;20319;-73
2021/06/24 22:17:39;;;;;;;18.23;11.10;;;;;;;15.56;66.41;100729.91;10269030;28;20200;-73
2021/06/24 22:22:43;;;;;;;14.95;10.10;;;;;;;15.51;66.33;100734.06;10269444;28;20212;-73
2021/06/24 22:27:47;;;;;;;19.15;10.57;;;;;;;15.50;66.92;100735.09;10268819;28;20820;-73
2021/06/24 22:32:50;;;;;;;14.32;9.43;;;;;;;15.13;68.32;100733.16;10269164;28;20223;-73
2021/06/24 22:37:54;;;;;;;13.85;9.43;;;;;;;15.00;69.04;100722.63;10268463;28;20228;-73
2021/06/24 22:42:57;;;;;;;16.90;10.00;;;;;;;14.90;69.28;100724.50;10268649;28;20231;-73
2021/06/24 22:48:01;;;;;;;18.85;11.63;;;;;;;14.99;69.23;100723.63;10268161;28;20224;-73
2021/06/24 22:53:06;;;;;;;17.73;10.50;;;;;;;14.99;69.39;100716.38;10267908;28;20229;-73
2021/06/24 22:58:09;;;;;;;16.15;10.57;;;;;;;15.07;69.29;100725.63;10267973;28;20201;-73
2021/06/24 23:03:12;;;;;;;13.70;10.15;;;;;;;15.11;68.82;100725.19;10267944;28;20217;-73
2021/06/24 23:08:16;;;;;;;17.42;11.05;;;;;;;15.11;69.06;100729.72;10267739;28;20580;-73
2021/06/24 23:13:19;;;;;;;15.68;10.18;;;;;;;15.17;68.89;100734.56;10267776;28;20318;-73